PWSweather.com
Personal Weather Stations
Station Observations
WISCHPK61
Green Bay Schmitt Park, Green Bay, WI 54311

Green Bay Schmitt ParkGreen Bay, WI 54311

Lat: 44.514277, Lon: -87.935067

Elevation: 735

Station Type: Acu Rite Pro Weather Center model 02032C

http://greenbayweathercam.com

High Low Average
Temperature 88.0°F31.1°C 65.3°F18.5°C 72.2°F22.3°C
Dew Point 87.7°F30.9°C 65.0°F18.3°C 71.9°F22.2°C
Winds 2.3 mph 3.7 kmh Calm Calm Calm SSWCalm SSW
Wind Gusts 5.8 mph9.3 kmh -- --
Humidity 99% 99% 99%
Pressure 29.23 in989.8 mb 29.15 in987.1 mb -
Precipitation 0.18 in4.6 mm - -
Hour Temp Dew Point Humidity Winds Wind Gusts Pressure Precip Precip Rate Daily Precip Total
12:00 AM 67.1°F19.5°C 66.8°F19.3°C 99% Calm Calm -- 29.23 in989.8 mb - 0.00 in0.0 mm 0.00 in0.0 mm
01:00 AM 67.1°F19.5°C 66.8°F19.3°C 99% Calm Calm -- 29.22 in989.5 mb - 0.00 in0.0 mm 0.00 in0.0 mm
02:00 AM 66.8°F19.3°C 66.5°F19.2°C 99% Calm Calm -- 29.21 in989.2 mb - 0.00 in0.0 mm 0.00 in0.0 mm
03:00 AM 66.6°F19.2°C 66.3°F19.1°C 99% Calm Calm -- 29.20 in988.8 mb - 0.00 in0.0 mm 0.00 in0.0 mm
04:00 AM 66.4°F19.1°C 66.1°F18.9°C 99% Calm Calm -- 29.20 in988.8 mb - 0.00 in0.0 mm 0.00 in0.0 mm
05:00 AM 65.7°F18.7°C 65.4°F18.6°C 99% Calm Calm -- 29.21 in989.2 mb - 0.00 in0.0 mm 0.00 in0.0 mm
06:00 AM 65.3°F18.5°C 65.0°F18.3°C 99% Calm Calm -- 29.21 in989.2 mb - 0.00 in0.0 mm 0.00 in0.0 mm
07:00 AM 66.2°F19.0°C 65.9°F18.8°C 99% Calm Calm -- 29.21 in989.2 mb - 0.00 in0.0 mm 0.00 in0.0 mm
08:00 AM 68.0°F20.0°C 67.7°F19.8°C 99% Calm Calm -- 29.21 in989.2 mb - 0.00 in0.0 mm 0.00 in0.0 mm
09:00 AM 73.3°F22.9°C 73.0°F22.8°C 99% Calm Calm 1.2 mph1.9 kmh 29.20 in988.8 mb - 0.00 in0.0 mm 0.00 in0.0 mm
10:00 AM 77.0°F25.0°C 76.7°F24.8°C 99% Calm Calm 1.2 mph1.9 kmh 29.20 in988.8 mb - 0.00 in0.0 mm 0.00 in0.0 mm
11:00 AM 80.8°F27.1°C 80.5°F26.9°C 99% Calm Calm -- 29.19 in988.5 mb - 0.00 in0.0 mm 0.00 in0.0 mm
12:00 PM 83.3°F28.5°C 83.0°F28.3°C 99% Calm Calm 1.2 mph1.9 kmh 29.17 in987.8 mb - 0.00 in0.0 mm 0.00 in0.0 mm
01:00 PM 88.0°F31.1°C 87.7°F30.9°C 99% 2.3 mph SSW3.7 kmh SSW 5.8 mph9.3 kmh 29.15 in987.1 mb - 0.00 in0.0 mm 0.00 in0.0 mm
02:00 PM 84.7°F29.3°C 84.4°F29.1°C 99% 2.3 mph NNW3.7 kmh NNW 2.3 mph3.7 kmh 29.15 in987.1 mb - 0.00 in0.0 mm 0.00 in0.0 mm
03:00 PM 82.5°F28.1°C 82.2°F27.9°C 99% Calm Calm -- 29.15 in987.1 mb - 0.00 in0.0 mm 0.00 in0.0 mm
04:00 PM 77.2°F25.1°C 76.9°F24.9°C 99% Calm Calm -- 29.18 in988.1 mb - 0.00 in0.0 mm 0.00 in0.0 mm
05:00 PM 75.4°F24.1°C 75.1°F23.9°C 99% Calm Calm -- 29.20 in988.8 mb - 0.00 in0.0 mm 0.00 in0.0 mm
06:00 PM 72.5°F22.5°C 72.2°F22.3°C 99% Calm Calm -- 29.18 in988.1 mb - 0.00 in0.0 mm 0.00 in0.0 mm
07:00 PM 70.5°F21.4°C 70.2°F21.2°C 99% Calm Calm -- 29.18 in988.1 mb - 0.00 in0.0 mm 0.00 in0.0 mm
08:00 PM 69.3°F20.7°C 69.0°F20.6°C 99% Calm Calm -- 29.17 in987.8 mb - 0.00 in0.0 mm 0.00 in0.0 mm
09:00 PM 66.9°F19.4°C 66.6°F19.2°C 99% Calm Calm -- 29.21 in989.2 mb - 0.09 in2.3 mm 0.09 in2.3 mm
10:00 PM 66.4°F19.1°C 66.1°F18.9°C 99% Calm Calm -- 29.21 in989.2 mb - 0.11 in2.8 mm 0.18 in4.6 mm
11:00 PM 65.3°F18.5°C 65.0°F18.3°C 99% Calm Calm -- 29.20 in988.8 mb - 0.07 in1.8 mm 0.27 in6.9 mm